Terminal Aerodrome Forecast
Issued by NWS Bismarck, ND

Home | Current Version | Previous Version | Text Only | Print | Product List | Glossary On
Versions: 1 2 3 4 5 6 7 8 9 10 11 12 13 14 15 16 17 18
000
FTUS43 KBIS 231700
TAFBIS
TAF
KBIS 231733Z 2318/2418 15015KT P6SM SCT060 SCT090
      TEMPO 2318/2320 SCT060 BKN080
     FM240200 14012KT P6SM SCT070 BKN100
     FM240800 13011KT P6SM VCTS SCT050CB BKN100
      TEMPO 2408/2412 -TSRA OVC040CB
     FM241400 14016G23KT P6SM SCT070 SCT100=

USA.gov is the U.S. government's official web portal to all federal, state and local government web resources and services.